sensor_id;sensor_type;location;lat;lon;timestamp;pressure;altitude;pressure_sealevel;temperature;humidity
498;BME280;39559;48.630;9.162;2022-07-21T00:04:06;97763.59;;;17.43;100.00
498;BME280;39559;48.630;9.162;2022-07-21T00:06:32;97765.34;;;17.42;100.00
498;BME280;39559;48.630;9.162;2022-07-21T00:08:57;97748.03;;;17.40;100.00
498;BME280;39559;48.630;9.162;2022-07-21T00:11:23;97738.88;;;17.33;100.00
498;BME280;39559;48.630;9.162;2022-07-21T00:13:48;97757.03;;;17.23;100.00
498;BME280;39559;48.630;9.162;2022-07-21T00:16:14;97768.91;;;17.29;100.00
498;BME280;39559;48.630;9.162;2022-07-21T00:18:40;97774.47;;;17.37;100.00
498;BME280;39559;48.630;9.162;2022-07-21T00:21:05;97779.59;;;17.65;100.00
498;BME280;39559;48.630;9.162;2022-07-21T00:23:31;97785.88;;;17.50;100.00
498;BME280;39559;48.630;9.162;2022-07-21T00:28:03;97793.13;;;17.46;100.00
498;BME280;39559;48.630;9.162;2022-07-21T00:30:29;97783.44;;;17.47;100.00
498;BME280;39559;48.630;9.162;2022-07-21T00:32:55;97769.78;;;17.42;100.00
498;BME280;39559;48.630;9.162;2022-07-21T00:35:21;97763.69;;;17.41;100.00
498;BME280;39559;48.630;9.162;2022-07-21T00:37:46;97757.16;;;17.34;100.00
498;BME280;39559;48.630;9.162;2022-07-21T00:40:12;97755.38;;;17.35;100.00
498;BME280;39559;48.630;9.162;2022-07-21T00:42:39;97754.13;;;17.40;100.00
498;BME280;39559;48.630;9.162;2022-07-21T00:45:06;97753.19;;;17.41;100.00
498;BME280;39559;48.630;9.162;2022-07-21T00:47:32;97754.00;;;17.42;100.00
498;BME280;39559;48.630;9.162;2022-07-21T00:51:56;97758.97;;;17.46;100.00
498;BME280;39559;48.630;9.162;2022-07-21T00:54:22;97761.19;;;17.53;100.00
498;BME280;39559;48.630;9.162;2022-07-21T00:56:47;97762.25;;;17.50;100.00
498;BME280;39559;48.630;9.162;2022-07-21T00:59:13;97772.75;;;17.50;100.00
498;BME280;39559;48.630;9.162;2022-07-21T01:01:39;97778.19;;;17.47;100.00
498;BME280;39559;48.630;9.162;2022-07-21T01:04:05;97790.59;;;17.45;100.00
498;BME280;39559;48.630;9.162;2022-07-21T01:06:31;97788.78;;;17.45;100.00
498;BME280;39559;48.630;9.162;2022-07-21T01:08:56;97776.94;;;17.53;100.00
498;BME280;39559;48.630;9.162;2022-07-21T01:11:24;97774.94;;;17.56;100.00
498;BME280;39559;48.630;9.162;2022-07-21T01:15:51;97785.25;;;17.59;100.00
498;BME280;39559;48.630;9.162;2022-07-21T01:18:17;97778.41;;;17.57;100.00
498;BME280;39559;48.630;9.162;2022-07-21T01:20:44;97780.31;;;17.55;100.00
498;BME280;39559;48.630;9.162;2022-07-21T01:23:12;97774.41;;;17.51;100.00
498;BME280;39559;48.630;9.162;2022-07-21T01:25:38;97762.88;;;17.54;100.00
498;BME280;39559;48.630;9.162;2022-07-21T01:28:04;97773.06;;;17.58;100.00
498;BME280;39559;48.630;9.162;2022-07-21T01:30:29;97780.31;;;17.55;100.00
498;BME280;39559;48.630;9.162;2022-07-21T01:32:55;97778.31;;;17.58;100.00
498;BME280;39559;48.630;9.162;2022-07-21T01:35:20;97782.41;;;17.62;100.00
498;BME280;39559;48.630;9.162;2022-07-21T01:39:47;97803.75;;;17.58;100.00
498;BME280;39559;48.630;9.162;2022-07-21T01:42:31;97805.81;;;17.53;100.00
498;BME280;39559;48.630;9.162;2022-07-21T01:44:57;97809.28;;;17.53;100.00
498;BME280;39559;48.630;9.162;2022-07-21T01:47:23;97817.91;;;17.55;100.00
498;BME280;39559;48.630;9.162;2022-07-21T01:49:49;97823.38;;;17.52;100.00
498;BME280;39559;48.630;9.162;2022-07-21T01:52:14;97836.50;;;17.52;100.00
498;BME280;39559;48.630;9.162;2022-07-21T01:54:40;97828.53;;;17.54;100.00
498;BME280;39559;48.630;9.162;2022-07-21T01:57:06;97827.47;;;17.56;100.00
498;BME280;39559;48.630;9.162;2022-07-21T01:59:31;97832.38;;;17.48;100.00
498;BME280;39559;48.630;9.162;2022-07-21T02:03:41;97827.53;;;17.42;100.00
498;BME280;39559;48.630;9.162;2022-07-21T02:06:06;97813.47;;;17.43;100.00
498;BME280;39559;48.630;9.162;2022-07-21T02:08:34;97824.72;;;17.45;100.00
498;BME280;39559;48.630;9.162;2022-07-21T02:10:59;97819.84;;;17.39;100.00
498;BME280;39559;48.630;9.162;2022-07-21T02:13:25;97818.72;;;17.43;100.00
498;BME280;39559;48.630;9.162;2022-07-21T02:15:51;97813.56;;;17.41;100.00
498;BME280;39559;48.630;9.162;2022-07-21T02:18:17;97818.72;;;17.43;100.00
498;BME280;39559;48.630;9.162;2022-07-21T02:20:43;97827.34;;;17.45;100.00
498;BME280;39559;48.630;9.162;2022-07-21T02:23:10;97835.59;;;17.39;100.00
498;BME280;39559;48.630;9.162;2022-07-21T02:27:37;97842.81;;;17.35;100.00
498;BME280;39559;48.630;9.162;2022-07-21T02:30:03;97843.69;;;17.36;100.00
498;BME280;39559;48.630;9.162;2022-07-21T02:32:29;97829.97;;;17.45;100.00
498;BME280;39559;48.630;9.162;2022-07-21T02:34:56;97831.75;;;17.44;100.00
498;BME280;39559;48.630;9.162;2022-07-21T02:37:21;97825.31;;;17.36;100.00
498;BME280;39559;48.630;9.162;2022-07-21T02:39:48;97821.00;;;17.35;100.00
498;BME280;39559;48.630;9.162;2022-07-21T02:42:14;97815.56;;;17.38;100.00
498;BME280;39559;48.630;9.162;2022-07-21T02:44:39;97819.97;;;17.37;100.00
498;BME280;39559;48.630;9.162;2022-07-21T02:47:05;97821.81;;;17.35;100.00
498;BME280;39559;48.630;9.162;2022-07-21T02:51:32;97815.94;;;17.32;100.00
498;BME280;39559;48.630;9.162;2022-07-21T02:53:57;97816.53;;;17.22;100.00
498;BME280;39559;48.630;9.162;2022-07-21T02:56:23;97824.03;;;17.29;100.00
498;BME280;39559;48.630;9.162;2022-07-21T02:58:48;97826.84;;;17.25;100.00
498;BME280;39559;48.630;9.162;2022-07-21T03:01:14;97827.03;;;17.22;100.00
498;BME280;39559;48.630;9.162;2022-07-21T03:03:40;97828.06;;;17.20;100.00
498;BME280;39559;48.630;9.162;2022-07-21T03:06:06;97816.53;;;17.22;100.00
498;BME280;39559;48.630;9.162;2022-07-21T03:08:32;97820.28;;;17.18;100.00
498;BME280;39559;48.630;9.162;2022-07-21T03:10:57;97821.34;;;17.16;100.00
498;BME280;39559;48.630;9.162;2022-07-21T03:15:27;97819.41;;;17.32;100.00
498;BME280;39559;48.630;9.162;2022-07-21T03:17:54;97825.03;;;17.26;100.00
498;BME280;39559;48.630;9.162;2022-07-21T03:20:22;97827.97;;;17.21;100.00
498;BME280;39559;48.630;9.162;2022-07-21T03:22:48;97831.91;;;17.29;100.00
498;BME280;39559;48.630;9.162;2022-07-21T03:25:14;97827.03;;;17.22;100.00
498;BME280;39559;48.630;9.162;2022-07-21T03:27:40;97834.75;;;17.11;100.00
498;BME280;39559;48.630;9.162;2022-07-21T03:30:07;97834.09;;;17.07;100.00
498;BME280;39559;48.630;9.162;2022-07-21T03:32:33;97836.63;;;17.09;100.00
498;BME280;39559;48.630;9.162;2022-07-21T03:34:59;97842.06;;;17.06;100.00
498;BME280;39559;48.630;9.162;2022-07-21T03:39:23;97843.56;;;17.10;100.00
498;BME280;39559;48.630;9.162;2022-07-21T03:41:48;97833.91;;;17.11;100.00
498;BME280;39559;48.630;9.162;2022-07-21T03:44:14;97839.25;;;17.09;100.00
498;BME280;39559;48.630;9.162;2022-07-21T03:46:39;97837.63;;;16.94;100.00
498;BME280;39559;48.630;9.162;2022-07-21T03:49:05;97840.75;;;16.99;100.00
498;BME280;39559;48.630;9.162;2022-07-21T03:51:30;97849.59;;;16.98;100.00
498;BME280;39559;48.630;9.162;2022-07-21T03:53:56;97853.34;;;16.94;100.00
498;BME280;39559;48.630;9.162;2022-07-21T03:56:23;97857.81;;;16.92;100.00
498;BME280;39559;48.630;9.162;2022-07-21T03:58:49;97851.47;;;16.96;100.00
498;BME280;39559;48.630;9.162;2022-07-21T04:03:18;97858.03;;;16.88;100.00
498;BME280;39559;48.630;9.162;2022-07-21T04:05:43;97862.41;;;16.88;100.00
498;BME280;39559;48.630;9.162;2022-07-21T04:08:10;97858.00;;;16.74;100.00
498;BME280;39559;48.630;9.162;2022-07-21T04:10:38;97868.31;;;16.77;100.00
498;BME280;39559;48.630;9.162;2022-07-21T04:13:06;97874.69;;;16.87;100.00
498;BME280;39559;48.630;9.162;2022-07-21T04:15:33;97864.75;;;16.78;100.00
498;BME280;39559;48.630;9.162;2022-07-21T04:17:59;97874.09;;;16.68;100.00
498;BME280;39559;48.630;9.162;2022-07-21T04:20:25;97873.94;;;16.71;100.00
498;BME280;39559;48.630;9.162;2022-07-21T04:22:51;97868.97;;;16.81;100.00
498;BME280;39559;48.630;9.162;2022-07-21T04:27:14;97862.03;;;16.80;100.00
498;BME280;39559;48.630;9.162;2022-07-21T04:29:39;97874.09;;;16.82;100.00
498;BME280;39559;48.630;9.162;2022-07-21T04:32:05;97870.75;;;16.80;100.00
498;BME280;39559;48.630;9.162;2022-07-21T04:34:31;97881.81;;;16.71;100.00
498;BME280;39559;48.630;9.162;2022-07-21T04:36:57;97879.09;;;16.73;100.00
498;BME280;39559;48.630;9.162;2022-07-21T04:39:22;97878.91;;;16.76;100.00
498;BME280;39559;48.630;9.162;2022-07-21T04:41:48;97881.31;;;16.79;100.00
498;BME280;39559;48.630;9.162;2022-07-21T04:44:13;97880.00;;;16.72;100.00
498;BME280;39559;48.630;9.162;2022-07-21T04:46:39;97887.59;;;16.62;100.00
498;BME280;39559;48.630;9.162;2022-07-21T04:51:09;97890.06;;;16.65;100.00
498;BME280;39559;48.630;9.162;2022-07-21T04:53:35;97892.28;;;16.71;100.00
498;BME280;39559;48.630;9.162;2022-07-21T04:56:00;97886.13;;;16.72;100.00
498;BME280;39559;48.630;9.162;2022-07-21T04:58:26;97885.72;;;16.64;100.00
498;BME280;39559;48.630;9.162;2022-07-21T05:00:51;97890.72;;;16.68;100.00
498;BME280;39559;48.630;9.162;2022-07-21T05:03:17;97902.69;;;16.73;100.00
498;BME280;39559;48.630;9.162;2022-07-21T05:05:42;97901.09;;;16.70;100.00
498;BME280;39559;48.630;9.162;2022-07-21T05:08:08;97908.03;;;16.71;100.00
498;BME280;39559;48.630;9.162;2022-07-21T05:10:34;97909.34;;;16.78;100.00
498;BME280;39559;48.630;9.162;2022-07-21T05:15:08;97894.19;;;16.83;100.00
498;BME280;39559;48.630;9.162;2022-07-21T05:17:36;97889.78;;;16.84;100.00
498;BME280;39559;48.630;9.162;2022-07-21T05:20:03;97890.53;;;16.86;100.00
498;BME280;39559;48.630;9.162;2022-07-21T05:22:29;97891.72;;;16.80;100.00
498;BME280;39559;48.630;9.162;2022-07-21T05:24:55;97885.72;;;16.78;100.00
498;BME280;39559;48.630;9.162;2022-07-21T05:27:20;97892.41;;;16.84;100.00
498;BME280;39559;48.630;9.162;2022-07-21T05:29:46;97895.03;;;16.84;100.00
498;BME280;39559;48.630;9.162;2022-07-21T05:32:11;97895.03;;;16.84;100.00
498;BME280;39559;48.630;9.162;2022-07-21T05:34:37;97895.69;;;16.87;100.00
498;BME280;39559;48.630;9.162;2022-07-21T05:39:01;97897.94;;;16.94;100.00
498;BME280;39559;48.630;9.162;2022-07-21T05:41:26;97902.25;;;16.95;100.00
498;BME280;39559;48.630;9.162;2022-07-21T05:43:52;97901.97;;;16.99;100.00
498;BME280;39559;48.630;9.162;2022-07-21T05:46:17;97911.03;;;17.08;100.00
498;BME280;39559;48.630;9.162;2022-07-21T05:48:43;97913.47;;;17.11;100.00
498;BME280;39559;48.630;9.162;2022-07-21T05:51:09;97916.91;;;17.26;100.00
498;BME280;39559;48.630;9.162;2022-07-21T05:53:34;97919.84;;;17.21;100.00
498;BME280;39559;48.630;9.162;2022-07-21T05:56:00;97928.47;;;17.23;100.00
498;BME280;39559;48.630;9.162;2022-07-21T05:58:25;97930.59;;;17.31;100.00
498;BME280;39559;48.630;9.162;2022-07-21T06:02:56;97930.88;;;17.41;100.00
498;BME280;39559;48.630;9.162;2022-07-21T06:05:22;97934.44;;;17.40;100.00
498;BME280;39559;48.630;9.162;2022-07-21T06:07:47;97939.00;;;17.51;100.00
498;BME280;39559;48.630;9.162;2022-07-21T06:10:13;97941.88;;;17.60;100.00
498;BME280;39559;48.630;9.162;2022-07-21T06:12:39;97942.03;;;17.72;100.00
498;BME280;39559;48.630;9.162;2022-07-21T06:15:06;97935.25;;;17.82;100.00
498;BME280;39559;48.630;9.162;2022-07-21T06:17:42;97942.06;;;17.99;100.00
498;BME280;39559;48.630;9.162;2022-07-21T06:20:08;97935.34;;;18.08;100.00
498;BME280;39559;48.630;9.162;2022-07-21T06:22:34;97934.94;;;18.01;100.00
498;BME280;39559;48.630;9.162;2022-07-21T06:26:52;97936.09;;;18.10;100.00
498;BME280;39559;48.630;9.162;2022-07-21T06:29:17;97936.81;;;18.12;100.00
498;BME280;39559;48.630;9.162;2022-07-21T06:31:43;97940.22;;;18.14;100.00
498;BME280;39559;48.630;9.162;2022-07-21T06:34:08;97944.34;;;18.31;100.00
498;BME280;39559;48.630;9.162;2022-07-21T06:36:34;97943.63;;;18.29;100.00
498;BME280;39559;48.630;9.162;2022-07-21T06:38:59;97943.38;;;18.19;100.00
498;BME280;39559;48.630;9.162;2022-07-21T06:41:25;97948.78;;;18.30;100.00
498;BME280;39559;48.630;9.162;2022-07-21T06:43:50;97954.44;;;18.24;100.00
498;BME280;39559;48.630;9.162;2022-07-21T06:46:16;97950.53;;;18.30;100.00
498;BME280;39559;48.630;9.162;2022-07-21T06:50:48;97954.88;;;18.44;100.00
498;BME280;39559;48.630;9.162;2022-07-21T06:53:13;97945.75;;;18.62;100.00
498;BME280;39559;48.630;9.162;2022-07-21T06:55:40;97958.06;;;18.74;100.00
498;BME280;39559;48.630;9.162;2022-07-21T06:58:15;97954.19;;;18.80;100.00
498;BME280;39559;48.630;9.162;2022-07-21T07:00:42;97956.41;;;18.86;100.00
498;BME280;39559;48.630;9.162;2022-07-21T07:03:08;97957.66;;;18.80;100.00
498;BME280;39559;48.630;9.162;2022-07-21T07:05:34;97955.97;;;18.67;100.00
498;BME280;39559;48.630;9.162;2022-07-21T07:08:00;97957.53;;;18.69;100.00
498;BME280;39559;48.630;9.162;2022-07-21T07:10:27;97951.84;;;18.75;100.00
498;BME280;39559;48.630;9.162;2022-07-21T07:14:43;97952.91;;;18.60;100.00
498;BME280;39559;48.630;9.162;2022-07-21T07:17:09;97960.69;;;18.61;100.00
498;BME280;39559;48.630;9.162;2022-07-21T07:19:36;97959.00;;;18.73;100.00
498;BME280;39559;48.630;9.162;2022-07-21T07:22:01;97957.53;;;18.69;100.00
498;BME280;39559;48.630;9.162;2022-07-21T07:24:27;97958.06;;;18.74;100.00
498;BME280;39559;48.630;9.162;2022-07-21T07:26:52;97966.81;;;18.75;100.00
498;BME280;39559;48.630;9.162;2022-07-21T07:29:18;97967.06;;;18.85;100.00
498;BME280;39559;48.630;9.162;2022-07-21T07:31:43;97965.78;;;18.90;100.00
498;BME280;39559;48.630;9.162;2022-07-21T07:34:09;97966.00;;;18.87;100.00
498;BME280;39559;48.630;9.162;2022-07-21T07:38:39;97970.00;;;18.93;100.00
498;BME280;39559;48.630;9.162;2022-07-21T07:41:05;97961.88;;;18.70;100.00
498;BME280;39559;48.630;9.162;2022-07-21T07:43:31;97969.56;;;18.86;100.00
498;BME280;39559;48.630;9.162;2022-07-21T07:45:56;97959.88;;;18.74;100.00
498;BME280;39559;48.630;9.162;2022-07-21T07:48:22;97961.97;;;18.69;100.00
498;BME280;39559;48.630;9.162;2022-07-21T07:50:47;97961.16;;;18.81;100.00
498;BME280;39559;48.630;9.162;2022-07-21T07:53:13;97959.66;;;18.90;100.00
498;BME280;39559;48.630;9.162;2022-07-21T07:55:39;97962.28;;;19.03;100.00
498;BME280;39559;48.630;9.162;2022-07-21T07:58:04;97954.94;;;18.95;100.00
498;BME280;39559;48.630;9.162;2022-07-21T08:02:35;97965.78;;;19.03;100.00
498;BME280;39559;48.630;9.162;2022-07-21T08:05:02;97966.19;;;19.10;100.00
498;BME280;39559;48.630;9.162;2022-07-21T08:07:28;97955.44;;;19.13;100.00
498;BME280;39559;48.630;9.162;2022-07-21T08:09:53;97963.44;;;19.11;100.00
498;BME280;39559;48.630;9.162;2022-07-21T08:12:19;97958.38;;;19.34;100.00
498;BME280;39559;48.630;9.162;2022-07-21T08:14:44;97961.66;;;19.74;100.00
498;BME280;39559;48.630;9.162;2022-07-21T08:17:10;97964.56;;;19.83;100.00
498;BME280;39559;48.630;9.162;2022-07-21T08:19:36;97964.94;;;20.13;100.00
498;BME280;39559;48.630;9.162;2022-07-21T08:22:01;97962.75;;;20.31;100.00
498;BME280;39559;48.630;9.162;2022-07-21T08:26:30;97972.09;;;20.00;100.00
498;BME280;39559;48.630;9.162;2022-07-21T08:28:57;97965.81;;;20.14;100.00
498;BME280;39559;48.630;9.162;2022-07-21T08:31:23;97974.00;;;20.33;100.00
498;BME280;39559;48.630;9.162;2022-07-21T08:33:50;97970.13;;;20.15;100.00
498;BME280;39559;48.630;9.162;2022-07-21T08:36:15;97961.06;;;20.06;100.00
498;BME280;39559;48.630;9.162;2022-07-21T08:38:42;97958.63;;;20.16;100.00
498;BME280;39559;48.630;9.162;2022-07-21T08:41:07;97960.97;;;20.32;100.00
498;BME280;39559;48.630;9.162;2022-07-21T08:43:34;97963.97;;;20.39;100.00
498;BME280;39559;48.630;9.162;2022-07-21T08:46:00;97967.94;;;20.09;100.00
498;BME280;39559;48.630;9.162;2022-07-21T08:50:29;97958.81;;;20.02;100.00
498;BME280;39559;48.630;9.162;2022-07-21T08:52:55;97960.56;;;20.25;100.00
498;BME280;39559;48.630;9.162;2022-07-21T08:55:20;97961.09;;;20.42;100.00
498;BME280;39559;48.630;9.162;2022-07-21T08:57:46;97957.59;;;20.65;100.00
498;BME280;39559;48.630;9.162;2022-07-21T09:00:12;97954.03;;;20.42;100.00
498;BME280;39559;48.630;9.162;2022-07-21T09:02:38;97964.13;;;20.48;100.00
498;BME280;39559;48.630;9.162;2022-07-21T09:05:05;97959.09;;;20.57;100.00
498;BME280;39559;48.630;9.162;2022-07-21T09:07:51;97955.47;;;20.46;100.00
498;BME280;39559;48.630;9.162;2022-07-21T09:10:25;97951.78;;;20.49;100.00
498;BME280;39559;48.630;9.162;2022-07-21T09:14:23;97962.09;;;20.52;100.00
498;BME280;39559;48.630;9.162;2022-07-21T09:16:54;97959.31;;;20.78;100.00
498;BME280;39559;48.630;9.162;2022-07-21T09:19:26;97958.09;;;20.70;100.00
498;BME280;39559;48.630;9.162;2022-07-21T09:21:54;97962.03;;;20.65;100.00
498;BME280;39559;48.630;9.162;2022-07-21T09:24:30;97957.00;;;20.84;100.00
498;BME280;39559;48.630;9.162;2022-07-21T09:29:58;97953.66;;;21.61;94.80
498;BME280;39559;48.630;9.162;2022-07-21T09:32:25;97957.63;;;21.67;95.51
498;BME280;39559;48.630;9.162;2022-07-21T09:35:03;97951.56;;;21.88;95.75
498;BME280;39559;48.630;9.162;2022-07-21T09:38:17;97946.50;;;21.84;97.89
498;BME280;39559;48.630;9.162;2022-07-21T09:40:47;97944.00;;;22.48;94.42
498;BME280;39559;48.630;9.162;2022-07-21T09:43:49;97939.16;;;22.20;90.06
498;BME280;39559;48.630;9.162;2022-07-21T09:46:35;97939.03;;;22.54;93.74
498;BME280;39559;48.630;9.162;2022-07-21T09:49:01;97947.16;;;22.41;84.42
498;BME280;39559;48.630;9.162;2022-07-21T09:51:37;97944.00;;;22.15;88.79
498;BME280;39559;48.630;9.162;2022-07-21T09:54:07;97945.56;;;22.18;91.13
498;BME280;39559;48.630;9.162;2022-07-21T09:56:40;97943.44;;;22.00;92.83
498;BME280;39559;48.630;9.162;2022-07-21T09:59:07;97941.03;;;22.09;92.93
498;BME280;39559;48.630;9.162;2022-07-21T10:02:29;97949.16;;;22.49;92.56
498;BME280;39559;48.630;9.162;2022-07-21T10:04:58;97943.81;;;22.91;90.65
498;BME280;39559;48.630;9.162;2022-07-21T10:07:25;97946.22;;;22.94;92.53
498;BME280;39559;48.630;9.162;2022-07-21T10:09:51;97942.41;;;22.87;87.35
498;BME280;39559;48.630;9.162;2022-07-21T10:12:18;97934.75;;;22.63;88.99
498;BME280;39559;48.630;9.162;2022-07-21T10:14:44;97937.72;;;23.00;86.46
498;BME280;39559;48.630;9.162;2022-07-21T10:17:16;97932.28;;;22.92;82.97
498;BME280;39559;48.630;9.162;2022-07-21T10:26:08;97922.88;;;23.50;81.65
498;BME280;39559;48.630;9.162;2022-07-21T10:28:35;97919.69;;;23.56;75.13
498;BME280;39559;48.630;9.162;2022-07-21T10:31:16;97915.22;;;23.66;73.44
498;BME280;39559;48.630;9.162;2022-07-21T10:41:39;97914.44;;;22.94;80.17
498;BME280;39559;48.630;9.162;2022-07-21T10:47:07;97906.00;;;23.51;78.18
498;BME280;39559;48.630;9.162;2022-07-21T10:50:03;97902.84;;;24.06;70.27
498;BME280;39559;48.630;9.162;2022-07-21T10:57:38;97900.16;;;24.35;77.03
498;BME280;39559;48.630;9.162;2022-07-21T11:00:28;97895.13;;;24.32;73.48
498;BME280;39559;48.630;9.162;2022-07-21T11:02:59;97905.22;;;24.38;74.32
498;BME280;39559;48.630;9.162;2022-07-21T11:05:27;97894.41;;;24.59;70.50
498;BME280;39559;48.630;9.162;2022-07-21T11:10:50;97894.84;;;24.45;72.85
498;BME280;39559;48.630;9.162;2022-07-21T11:14:16;97897.94;;;24.21;70.45
498;BME280;39559;48.630;9.162;2022-07-21T11:22:02;97887.03;;;24.53;68.91
498;BME280;39559;48.630;9.162;2022-07-21T11:24:28;97886.72;;;24.66;63.74
498;BME280;39559;48.630;9.162;2022-07-21T11:27:19;97877.94;;;24.65;62.95
498;BME280;39559;48.630;9.162;2022-07-21T11:29:47;97873.94;;;24.79;58.58
498;BME280;39559;48.630;9.162;2022-07-21T11:32:14;97870.31;;;25.08;63.82
498;BME280;39559;48.630;9.162;2022-07-21T11:37:51;97862.53;;;25.52;57.41
498;BME280;39559;48.630;9.162;2022-07-21T11:40:19;97871.91;;;25.56;57.40
498;BME280;39559;48.630;9.162;2022-07-21T11:42:47;97862.47;;;25.44;57.84
498;BME280;39559;48.630;9.162;2022-07-21T11:45:15;97866.22;;;25.23;53.40
498;BME280;39559;48.630;9.162;2022-07-21T11:47:42;97862.13;;;24.64;61.39
498;BME280;39559;48.630;9.162;2022-07-21T11:50:10;97853.91;;;24.95;60.56
498;BME280;39559;48.630;9.162;2022-07-21T11:52:38;97858.72;;;24.81;63.50
498;BME280;39559;48.630;9.162;2022-07-21T11:55:06;97850.25;;;24.96;55.54
498;BME280;39559;48.630;9.162;2022-07-21T11:57:33;97854.03;;;24.56;56.54
498;BME280;39559;48.630;9.162;2022-07-21T12:07:21;97851.09;;;24.96;61.75
498;BME280;39559;48.630;9.162;2022-07-21T12:09:58;97845.59;;;24.80;59.29
498;BME280;39559;48.630;9.162;2022-07-21T12:17:48;97837.34;;;25.56;59.23
498;BME280;39559;48.630;9.162;2022-07-21T12:20:18;97832.56;;;26.22;55.71
498;BME280;39559;48.630;9.162;2022-07-21T12:22:48;97828.03;;;26.14;49.65
498;BME280;39559;48.630;9.162;2022-07-21T12:25:39;97836.22;;;26.73;52.87
498;BME280;39559;48.630;9.162;2022-07-21T12:28:06;97839.63;;;26.84;52.62
498;BME280;39559;48.630;9.162;2022-07-21T12:30:46;97836.44;;;26.01;49.31
498;BME280;39559;48.630;9.162;2022-07-21T12:33:27;97838.09;;;26.02;56.08
498;BME280;39559;48.630;9.162;2022-07-21T12:36:03;97829.94;;;25.68;51.31
498;BME280;39559;48.630;9.162;2022-07-21T12:38:41;97844.16;;;24.85;63.27
498;BME280;39559;48.630;9.162;2022-07-21T12:41:10;97837.22;;;25.02;58.61
498;BME280;39559;48.630;9.162;2022-07-21T12:43:37;97837.34;;;25.56;50.92
498;BME280;39559;48.630;9.162;2022-07-21T12:46:10;97834.34;;;25.59;52.28
498;BME280;39559;48.630;9.162;2022-07-21T12:50:03;97834.16;;;25.71;57.70
498;BME280;39559;48.630;9.162;2022-07-21T12:52:30;97831.91;;;25.84;57.15
498;BME280;39559;48.630;9.162;2022-07-21T12:54:57;97829.50;;;25.73;53.42
498;BME280;39559;48.630;9.162;2022-07-21T12:57:31;97822.88;;;25.77;52.39
498;BME280;39559;48.630;9.162;2022-07-21T12:59:58;97838.16;;;25.39;51.56
498;BME280;39559;48.630;9.162;2022-07-21T13:02:25;97830.47;;;25.90;53.62
498;BME280;39559;48.630;9.162;2022-07-21T13:04:51;97821.63;;;26.25;50.74
498;BME280;39559;48.630;9.162;2022-07-21T13:07:17;97835.44;;;26.55;53.04
498;BME280;39559;48.630;9.162;2022-07-21T13:09:43;97827.38;;;27.07;49.45
498;BME280;39559;48.630;9.162;2022-07-21T13:13:27;97832.88;;;27.14;48.85
498;BME280;39559;48.630;9.162;2022-07-21T13:15:53;97822.53;;;26.16;47.99
498;BME280;39559;48.630;9.162;2022-07-21T13:18:20;97830.06;;;26.47;50.83
498;BME280;39559;48.630;9.162;2022-07-21T13:20:46;97822.34;;;26.35;53.07
498;BME280;39559;48.630;9.162;2022-07-21T13:23:13;97828.91;;;26.75;54.21
498;BME280;39559;48.630;9.162;2022-07-21T13:25:38;97822.91;;;26.73;49.72
498;BME280;39559;48.630;9.162;2022-07-21T13:28:04;97825.31;;;26.58;50.81
498;BME280;39559;48.630;9.162;2022-07-21T13:30:30;97815.44;;;25.98;51.17
498;BME280;39559;48.630;9.162;2022-07-21T13:32:55;97815.56;;;25.79;52.16
498;BME280;39559;48.630;9.162;2022-07-21T13:37:20;97809.28;;;26.76;49.29
498;BME280;39559;48.630;9.162;2022-07-21T13:39:45;97811.06;;;26.41;49.36
498;BME280;39559;48.630;9.162;2022-07-21T13:42:11;97807.66;;;26.84;48.68
498;BME280;39559;48.630;9.162;2022-07-21T13:44:37;97808.84;;;27.48;46.48
498;BME280;39559;48.630;9.162;2022-07-21T13:47:02;97808.69;;;27.42;48.15
498;BME280;39559;48.630;9.162;2022-07-21T13:49:28;97811.91;;;27.11;47.38
498;BME280;39559;48.630;9.162;2022-07-21T13:51:54;97811.03;;;27.10;48.13
498;BME280;39559;48.630;9.162;2022-07-21T13:54:19;97815.75;;;26.74;49.09
498;BME280;39559;48.630;9.162;2022-07-21T13:56:46;97812.34;;;26.37;49.94
498;BME280;39559;48.630;9.162;2022-07-21T14:01:14;97810.97;;;26.86;50.90
498;BME280;39559;48.630;9.162;2022-07-21T14:03:40;97798.41;;;26.70;46.98
498;BME280;39559;48.630;9.162;2022-07-21T14:06:06;97798.78;;;26.75;49.27
498;BME280;39559;48.630;9.162;2022-07-21T14:08:31;97799.31;;;27.29;50.51
498;BME280;39559;48.630;9.162;2022-07-21T14:10:57;97798.84;;;27.67;46.40
498;BME280;39559;48.630;9.162;2022-07-21T14:13:23;97801.81;;;27.39;49.79
498;BME280;39559;48.630;9.162;2022-07-21T14:15:48;97802.47;;;27.41;49.17
498;BME280;39559;48.630;9.162;2022-07-21T14:18:14;97804.91;;;26.67;53.57
498;BME280;39559;48.630;9.162;2022-07-21T14:20:39;97801.56;;;26.39;53.32
498;BME280;39559;48.630;9.162;2022-07-21T14:25:07;97797.47;;;26.53;53.90
498;BME280;39559;48.630;9.162;2022-07-21T14:27:53;97799.28;;;26.78;51.06
498;BME280;39559;48.630;9.162;2022-07-21T14:30:19;97797.25;;;27.15;51.67
498;BME280;39559;48.630;9.162;2022-07-21T14:32:46;97800.09;;;27.22;51.35
498;BME280;39559;48.630;9.162;2022-07-21T14:35:13;97804.94;;;27.18;50.02
498;BME280;39559;48.630;9.162;2022-07-21T14:37:45;97796.13;;;27.34;52.37
498;BME280;39559;48.630;9.162;2022-07-21T14:40:12;97800.41;;;27.18;53.14
498;BME280;39559;48.630;9.162;2022-07-21T14:42:38;97805.03;;;27.00;52.83
498;BME280;39559;48.630;9.162;2022-07-21T14:45:05;97793.47;;;26.49;53.17
498;BME280;39559;48.630;9.162;2022-07-21T14:48:59;97802.38;;;25.51;55.91
498;BME280;39559;48.630;9.162;2022-07-21T14:51:25;97799.13;;;25.12;56.79
498;BME280;39559;48.630;9.162;2022-07-21T14:53:50;97802.88;;;24.91;56.08
498;BME280;39559;48.630;9.162;2022-07-21T14:56:16;97801.00;;;25.19;54.81
498;BME280;39559;48.630;9.162;2022-07-21T14:58:42;97798.03;;;25.32;56.13
498;BME280;39559;48.630;9.162;2022-07-21T15:01:07;97792.56;;;25.70;53.67
498;BME280;39559;48.630;9.162;2022-07-21T15:03:33;97793.22;;;26.08;55.77
498;BME280;39559;48.630;9.162;2022-07-21T15:05:58;97798.66;;;26.24;56.41